createdAt,value
2022-08-08T00:00:52.193Z,5.90
2022-08-08T00:03:20.348Z,6.40
2022-08-08T00:06:06.189Z,8.40
2022-08-08T00:08:51.389Z,11.75
2022-08-08T00:11:46.911Z,7.05
2022-08-08T00:15:00.304Z,11.38
2022-08-08T00:18:05.796Z,11.65
2022-08-08T00:21:01.360Z,9.20
2022-08-08T00:23:57.883Z,7.10
2022-08-08T00:26:31.568Z,9.90
2022-08-08T00:29:07.883Z,8.77
2022-08-08T00:32:20.780Z,9.80
2022-08-08T00:35:06.811Z,9.82
2022-08-08T00:37:48.344Z,11.55
2022-08-08T00:41:06.326Z,7.65
2022-08-08T00:43:59.097Z,6.65
2022-08-08T00:46:58.939Z,8.48
2022-08-08T00:49:58.547Z,10.85
2022-08-08T00:52:39.323Z,9.35
2022-08-08T00:55:16.899Z,7.45
2022-08-08T01:00:53.460Z,8.60
2022-08-08T01:04:02.482Z,6.85
2022-08-08T01:07:01.948Z,9.07
2022-08-08T01:10:23.710Z,6.45
2022-08-08T01:13:52.899Z,9.23
2022-08-08T01:16:33.862Z,7.00
2022-08-08T01:19:52.223Z,14.40
2022-08-08T01:22:40.209Z,10.27
2022-08-08T01:25:26.455Z,9.05
2022-08-08T01:28:31.710Z,11.30
2022-08-08T01:32:13.295Z,10.90
2022-08-08T01:34:34.588Z,9.00
2022-08-08T01:37:57.828Z,9.80
2022-08-08T01:40:28.164Z,8.75
2022-08-08T01:43:13.973Z,9.52
2022-08-08T01:49:01.093Z,10.65
2022-08-08T01:52:51.505Z,7.22
2022-08-08T01:55:25.696Z,6.97
2022-08-08T01:58:39.571Z,10.82
2022-08-08T02:01:28.136Z,9.63
2022-08-08T02:04:35.637Z,11.82
2022-08-08T02:07:19.873Z,7.18
2022-08-08T02:10:30.066Z,9.70
2022-08-08T02:13:54.809Z,9.82
2022-08-08T02:16:43.569Z,7.47
2022-08-08T02:19:57.938Z,7.65
2022-08-08T02:22:31.884Z,13.40
2022-08-08T02:25:32.825Z,12.30
2022-08-08T02:28:17.802Z,7.93
2022-08-08T02:31:07.147Z,7.30
2022-08-08T02:34:32.671Z,9.65
2022-08-08T02:37:52.996Z,10.43
2022-08-08T02:40:15.473Z,11.63
2022-08-08T02:44:37.052Z,11.63
2022-08-08T02:46:35.455Z,14.93
2022-08-08T02:49:48.300Z,7.75
2022-08-08T02:52:38.548Z,8.65
2022-08-08T02:56:00.026Z,7.78
2022-08-08T02:59:26.094Z,8.77
2022-08-08T03:02:38.953Z,9.43
2022-08-08T03:05:09.561Z,7.95
2022-08-08T03:08:06.173Z,12.98
2022-08-08T03:11:47.893Z,8.88
2022-08-08T03:15:59.618Z,8.15
2022-08-08T03:17:34.006Z,18.58
2022-08-08T03:20:08.135Z,7.40
2022-08-08T03:22:45.712Z,8.10
2022-08-08T03:25:18.441Z,12.83
2022-08-08T03:28:07.988Z,22.30
2022-08-08T03:30:35.668Z,7.80
2022-08-08T03:33:56.769Z,13.63
2022-08-08T03:36:09.486Z,9.40
2022-08-08T03:38:56.528Z,7.97
2022-08-08T03:42:26.747Z,9.18
2022-08-08T03:44:36.045Z,10.70
2022-08-08T03:47:19.251Z,12.60
2022-08-08T03:50:27.498Z,7.90
2022-08-08T03:53:14.822Z,12.93
2022-08-08T03:56:04.203Z,10.18
2022-08-08T03:58:37.637Z,7.40
2022-08-08T04:01:24.495Z,7.63
2022-08-08T04:03:58.075Z,14.52
2022-08-08T04:06:30.004Z,8.73
2022-08-08T04:09:11.094Z,8.48
2022-08-08T04:11:58.191Z,12.25
2022-08-08T04:14:34.894Z,9.93
2022-08-08T04:17:04.286Z,9.30
2022-08-08T04:19:36.587Z,9.93
2022-08-08T04:22:05.057Z,11.23
2022-08-08T04:24:32.483Z,13.80
2022-08-08T04:27:00.448Z,12.02
2022-08-08T04:29:37.082Z,11.43
2022-08-08T04:32:07.174Z,15.82
2022-08-08T04:34:42.942Z,14.15
2022-08-08T04:37:31.915Z,14.05
2022-08-08T04:40:05.243Z,14.60
2022-08-08T04:42:36.688Z,13.57
2022-08-08T04:45:06.053Z,13.82
2022-08-08T04:47:36.413Z,14.77
2022-08-08T04:50:23.657Z,13.50
2022-08-08T04:53:00.684Z,15.70
2022-08-08T04:55:47.762Z,14.73
2022-08-08T04:58:21.716Z,11.13
2022-08-08T05:00:49.966Z,15.57
2022-08-08T05:04:09.709Z,21.75
2022-08-08T05:06:12.644Z,13.90
2022-08-08T05:08:51.696Z,14.63
2022-08-08T05:11:22.694Z,11.77
2022-08-08T05:13:54.987Z,9.48
2022-08-08T05:16:51.872Z,11.23
2022-08-08T05:20:12.037Z,19.55
2022-08-08T05:22:02.265Z,11.45
2022-08-08T05:24:30.828Z,11.23
2022-08-08T05:26:58.776Z,11.65
2022-08-08T05:29:29.036Z,17.15
2022-08-08T05:32:03.245Z,9.77
2022-08-08T05:34:46.258Z,14.30
2022-08-08T05:37:19.805Z,15.57
2022-08-08T05:39:52.777Z,17.75
2022-08-08T05:42:26.308Z,14.18
2022-08-08T05:44:54.604Z,13.07
2022-08-08T05:47:29.993Z,21.17
2022-08-08T05:50:17.920Z,25.90
2022-08-08T05:52:45.236Z,19.17
2022-08-08T05:55:14.100Z,24.55
2022-08-08T05:58:04.037Z,18.98
2022-08-08T06:00:34.404Z,14.65
2022-08-08T06:03:17.346Z,15.05
2022-08-08T06:06:01.595Z,17.08
2022-08-08T06:08:54.984Z,15.55
2022-08-08T06:11:32.122Z,20.20
2022-08-08T06:14:06.134Z,22.98
2022-08-08T06:16:42.193Z,19.70
2022-08-08T06:19:16.582Z,32.53
2022-08-08T06:21:56.826Z,22.65
2022-08-08T06:24:31.052Z,17.25
2022-08-08T06:27:10.386Z,16.90
2022-08-08T06:30:01.108Z,15.25
2022-08-08T06:32:31.249Z,10.05
2022-08-08T06:36:04.575Z,13.25
2022-08-08T06:37:57.645Z,16.58
2022-08-08T06:40:29.377Z,11.80
2022-08-08T06:43:10.753Z,12.48
2022-08-08T06:45:39.316Z,14.68
2022-08-08T06:48:07.180Z,19.73
2022-08-08T06:50:38.701Z,11.32
2022-08-08T06:53:17.160Z,12.68
2022-08-08T06:56:00.718Z,15.13
2022-08-08T06:58:33.234Z,10.20
2022-08-08T07:01:24.222Z,17.00
2022-08-08T07:04:37.098Z,11.68
2022-08-08T07:06:59.562Z,13.13
2022-08-08T07:09:41.967Z,15.32
2022-08-08T07:12:54.716Z,10.20
2022-08-08T07:16:06.137Z,17.85
2022-08-08T07:19:16.511Z,12.75
2022-08-08T07:22:05.367Z,19.58
2022-08-08T07:25:04.044Z,16.15
2022-08-08T07:28:02.170Z,13.38
2022-08-08T07:30:33.498Z,13.43
2022-08-08T07:33:05.433Z,13.52
2022-08-08T07:35:42.722Z,10.40
2022-08-08T07:38:18.433Z,12.68
2022-08-08T07:43:23.188Z,19.50
2022-08-08T07:46:18.311Z,19.42
2022-08-08T07:48:50.451Z,16.75
2022-08-08T07:51:23.034Z,20.60
2022-08-08T07:54:15.770Z,16.77
2022-08-08T07:56:55.346Z,15.32
2022-08-08T07:59:26.798Z,22.63
2022-08-08T08:02:33.481Z,11.45
2022-08-08T08:05:00.952Z,8.75
2022-08-08T08:07:38.603Z,9.40
2022-08-08T08:10:12.648Z,11.63
2022-08-08T08:12:47.292Z,12.50
2022-08-08T08:15:26.149Z,19.65
2022-08-08T08:18:01.855Z,13.68
2022-08-08T08:20:30.891Z,13.65
2022-08-08T08:22:58.257Z,10.80
2022-08-08T08:25:43.824Z,15.95
2022-08-08T08:28:21.432Z,13.73
2022-08-08T08:30:53.193Z,10.00
2022-08-08T08:33:21.107Z,13.70
2022-08-08T08:36:18.630Z,19.73
2022-08-08T08:38:38.558Z,13.60
2022-08-08T08:41:20.241Z,19.23
2022-08-08T08:43:50.849Z,13.23
2022-08-08T08:46:25.730Z,12.73
2022-08-08T08:48:55.581Z,16.02
2022-08-08T08:51:26.837Z,11.43
2022-08-08T08:54:00.985Z,13.05
2022-08-08T08:56:29.471Z,12.75
2022-08-08T08:58:58.375Z,15.80
2022-08-08T09:01:33.476Z,11.23
2022-08-08T09:04:31.055Z,9.38
2022-08-08T09:07:02.296Z,20.33
2022-08-08T09:09:48.244Z,9.55
2022-08-08T09:12:25.529Z,13.75
2022-08-08T09:14:57.970Z,16.70
2022-08-08T09:17:40.853Z,11.63
2022-08-08T09:21:56.517Z,8.15
2022-08-08T09:22:59.135Z,7.80
2022-08-08T09:25:36.030Z,10.85
2022-08-08T09:28:35.507Z,11.23
2022-08-08T09:31:16.828Z,20.88
2022-08-08T09:34:15.885Z,9.98
2022-08-08T09:36:36.083Z,9.52
2022-08-08T09:39:15.497Z,15.40
2022-08-08T09:42:19.945Z,15.02
2022-08-08T09:45:15.426Z,14.80
2022-08-08T09:48:11.491Z,9.88
2022-08-08T09:50:34.771Z,8.98
2022-08-08T09:53:23.606Z,7.50
2022-08-08T09:56:04.738Z,18.38
2022-08-08T09:58:44.929Z,9.23
2022-08-08T10:01:59.674Z,14.48
2022-08-08T10:04:14.554Z,13.68
2022-08-08T10:06:45.144Z,12.57
2022-08-08T10:12:38.163Z,4.47
2022-08-08T10:15:20.012Z,11.55
2022-08-08T10:18:06.700Z,10.93
2022-08-08T10:20:58.230Z,11.93
2022-08-08T10:23:47.072Z,4.53
2022-08-08T10:26:58.586Z,11.80
2022-08-08T10:29:59.325Z,12.68
2022-08-08T10:32:34.081Z,6.22
2022-08-08T10:35:10.630Z,6.38
2022-08-08T10:37:59.385Z,5.20
2022-08-08T10:40:30.812Z,7.60
2022-08-08T10:43:03.096Z,6.47
2022-08-08T10:45:39.076Z,4.03
2022-08-08T10:48:11.672Z,5.25
2022-08-08T10:50:42.608Z,5.15
2022-08-08T10:53:16.260Z,7.80
2022-08-08T10:55:46.661Z,4.03
2022-08-08T10:58:15.638Z,3.95
2022-08-08T11:00:52.606Z,3.88
2022-08-08T11:04:00.810Z,8.15
2022-08-08T11:06:35.239Z,3.90
2022-08-08T11:09:15.440Z,3.42
2022-08-08T11:12:05.892Z,5.47
2022-08-08T11:15:01.432Z,4.60
2022-08-08T11:17:58.582Z,6.90
2022-08-08T11:20:27.513Z,5.05
2022-08-08T11:22:57.442Z,4.57
2022-08-08T11:25:52.170Z,3.17
2022-08-08T11:28:23.192Z,2.70
2022-08-08T11:30:57.893Z,4.57
2022-08-08T11:33:52.920Z,3.50
2022-08-08T11:36:15.855Z,1.90
2022-08-08T11:38:55.124Z,4.95
2022-08-08T11:41:28.193Z,3.53
2022-08-08T11:44:01.049Z,2.65
2022-08-08T11:46:31.771Z,2.72
2022-08-08T11:49:13.989Z,3.08
2022-08-08T11:51:50.518Z,2.45
2022-08-08T11:54:33.830Z,4.25
2022-08-08T11:57:14.610Z,7.88
2022-08-08T12:00:07.555Z,3.35
2022-08-08T12:02:51.054Z,3.35
2022-08-08T12:05:22.510Z,5.57
2022-08-08T12:07:56.161Z,11.77
2022-08-08T12:10:26.412Z,7.70
2022-08-08T12:13:09.644Z,3.58
2022-08-08T12:15:49.046Z,1.73
2022-08-08T12:18:27.520Z,3.70
2022-08-08T12:20:59.431Z,5.75
2022-08-08T12:23:43.199Z,3.75
2022-08-08T12:26:37.859Z,5.60
2022-08-08T12:29:36.195Z,2.63
2022-08-08T12:32:20.291Z,4.63
2022-08-08T12:35:13.227Z,2.20
2022-08-08T12:38:01.939Z,2.90
2022-08-08T12:40:56.891Z,4.47
2022-08-08T12:43:46.485Z,2.27
2022-08-08T12:46:19.303Z,2.72
2022-08-08T12:51:58.975Z,5.82
2022-08-08T12:54:37.312Z,6.38
2022-08-08T12:57:17.089Z,2.25
2022-08-08T13:00:05.852Z,1.30
2022-08-08T13:02:51.593Z,5.60
2022-08-08T13:05:27.017Z,2.38
2022-08-08T13:08:22.042Z,1.52
2022-08-08T13:10:57.206Z,1.33
2022-08-08T13:13:34.791Z,2.20
2022-08-08T13:16:25.478Z,2.50
2022-08-08T13:19:01.694Z,3.35
2022-08-08T13:21:52.979Z,2.47
2022-08-08T13:24:40.879Z,3.10
2022-08-08T13:27:35.900Z,1.67
2022-08-08T13:30:06.259Z,1.70
2022-08-08T13:32:36.055Z,1.52
2022-08-08T13:35:24.300Z,5.18
2022-08-08T13:38:06.310Z,5.57
2022-08-08T13:40:35.691Z,4.85
2022-08-08T13:43:04.111Z,4.78
2022-08-08T13:45:31.836Z,3.28
2022-08-08T13:48:00.992Z,6.35
2022-08-08T13:50:43.306Z,14.23
2022-08-08T13:53:34.049Z,6.88
2022-08-08T13:56:11.734Z,6.05
2022-08-08T13:58:57.559Z,5.05
2022-08-08T14:01:53.138Z,9.40
2022-08-08T14:04:22.953Z,7.90
2022-08-08T14:06:58.898Z,7.10
2022-08-08T14:10:05.072Z,11.55
2022-08-08T14:12:30.607Z,8.13
2022-08-08T14:15:00.085Z,6.68
2022-08-08T14:17:57.631Z,7.70
2022-08-08T14:20:56.330Z,5.32
2022-08-08T14:24:03.362Z,14.10
2022-08-08T14:26:10.940Z,8.13
2022-08-08T14:28:39.946Z,9.15
2022-08-08T14:31:09.482Z,7.43
2022-08-08T14:33:37.465Z,5.47
2022-08-08T14:36:05.957Z,6.28
2022-08-08T14:38:51.751Z,5.93
2022-08-08T14:41:53.431Z,7.05
2022-08-08T14:44:14.015Z,6.55
2022-08-08T14:47:00.394Z,9.15
2022-08-08T14:49:37.940Z,10.02
2022-08-08T14:52:53.598Z,17.88
2022-08-08T14:55:22.608Z,8.10
2022-08-08T14:58:11.387Z,6.70
2022-08-08T15:00:45.702Z,7.03
2022-08-08T15:03:17.247Z,12.93
2022-08-08T15:05:54.166Z,9.02
2022-08-08T15:08:35.225Z,6.50
2022-08-08T15:11:11.378Z,6.22
2022-08-08T15:14:01.009Z,9.77
2022-08-08T15:16:28.229Z,9.55
2022-08-08T15:18:55.807Z,10.75
2022-08-08T15:21:23.089Z,7.18
2022-08-08T15:23:57.952Z,11.13
2022-08-08T15:26:28.990Z,13.10
2022-08-08T15:28:57.343Z,14.18
2022-08-08T15:32:03.140Z,6.65
2022-08-08T15:34:18.828Z,7.65
2022-08-08T15:37:03.483Z,20.75
2022-08-08T15:39:38.505Z,17.08
2022-08-08T15:42:10.600Z,5.65
2022-08-08T15:44:42.225Z,8.32
2022-08-08T15:47:16.084Z,4.18
2022-08-08T15:49:49.020Z,9.50
2022-08-08T15:52:20.528Z,7.38
2022-08-08T15:54:52.924Z,13.52
2022-08-08T15:57:22.320Z,13.02
2022-08-08T16:00:06.746Z,7.47
2022-08-08T16:02:50.370Z,6.72
2022-08-08T16:05:19.782Z,11.38
2022-08-08T16:07:53.163Z,6.75
2022-08-08T16:13:20.819Z,8.98
2022-08-08T16:13:29.325Z,8.68
2022-08-08T16:16:03.356Z,8.45
2022-08-08T16:18:41.903Z,5.47
2022-08-08T16:21:26.008Z,4.82
2022-08-08T16:24:54.123Z,7.80
2022-08-08T16:30:08.722Z,4.68
2022-08-08T16:32:48.520Z,10.73
2022-08-08T16:35:18.892Z,9.25
2022-08-08T16:37:50.837Z,6.47
2022-08-08T16:55:02.808Z,6.88
2022-08-08T16:55:04.274Z,10.27
2022-08-08T16:58:15.645Z,6.35
2022-08-08T17:00:32.758Z,6.03
2022-08-08T17:03:01.898Z,5.30
2022-08-08T17:05:31.376Z,4.72
2022-08-08T17:08:34.005Z,6.72
2022-08-08T17:11:38.910Z,6.00
2022-08-08T17:14:56.930Z,8.70
2022-08-08T17:18:01.417Z,4.32
2022-08-08T17:20:14.161Z,4.47
2022-08-08T17:22:45.519Z,9.02
2022-08-08T17:25:51.947Z,11.02
2022-08-08T17:28:34.618Z,6.55
2022-08-08T17:31:39.405Z,5.35
2022-08-08T17:34:49.585Z,3.67
2022-08-08T17:37:00.229Z,4.80
2022-08-08T17:40:03.703Z,6.07
2022-08-08T17:42:19.151Z,7.93
2022-08-08T17:44:51.173Z,6.13
2022-08-08T17:47:24.315Z,8.07
2022-08-08T17:50:07.824Z,6.75
2022-08-08T17:56:26.182Z,7.75
2022-08-08T17:58:53.757Z,4.43
2022-08-08T18:01:43.916Z,6.13
2022-08-08T18:04:09.199Z,4.25
2022-08-08T18:06:44.746Z,4.50
2022-08-08T18:09:12.995Z,7.10
2022-08-08T18:11:43.118Z,9.13
2022-08-08T18:14:22.003Z,12.02
2022-08-08T18:16:52.626Z,8.63
2022-08-08T18:19:23.466Z,8.45
2022-08-08T18:22:01.633Z,6.88
2022-08-08T18:24:30.373Z,4.88
2022-08-08T18:26:59.543Z,8.02
2022-08-08T18:29:37.241Z,8.63
2022-08-08T18:32:07.256Z,6.03
2022-08-08T18:34:37.805Z,6.13
2022-08-08T18:37:08.579Z,5.38
2022-08-08T18:39:41.253Z,9.40
2022-08-08T18:42:14.390Z,7.10
2022-08-08T18:44:54.722Z,10.90
2022-08-08T18:47:27.798Z,8.80
2022-08-08T18:50:00.418Z,7.82
2022-08-08T18:52:36.831Z,4.75
2022-08-08T18:55:10.314Z,9.38
2022-08-08T18:57:44.610Z,8.23
2022-08-08T19:00:19.788Z,7.82
2022-08-08T19:02:57.003Z,6.25
2022-08-08T19:05:37.822Z,7.97
2022-08-08T19:08:25.571Z,6.22
2022-08-08T19:10:57.778Z,7.63
2022-08-08T19:13:53.780Z,8.77
2022-08-08T19:16:18.947Z,9.07
2022-08-08T19:19:00.357Z,5.68
2022-08-08T19:21:33.337Z,15.23
2022-08-08T19:24:05.182Z,13.80
2022-08-08T19:26:34.455Z,8.77
2022-08-08T19:29:02.242Z,10.50
2022-08-08T19:31:31.405Z,16.60
2022-08-08T19:34:30.174Z,6.45
2022-08-08T19:36:53.017Z,9.35
2022-08-08T19:39:22.968Z,9.80
2022-08-08T19:41:52.269Z,12.13
2022-08-08T19:44:26.826Z,8.65
2022-08-08T19:47:07.032Z,9.70
2022-08-08T19:49:37.886Z,16.15
2022-08-08T19:52:07.253Z,8.00
2022-08-08T19:54:37.966Z,9.88
2022-08-08T19:57:07.342Z,10.48
2022-08-08T19:59:36.182Z,17.83
2022-08-08T20:02:05.525Z,10.60
2022-08-08T20:04:33.585Z,6.47
2022-08-08T20:08:28.826Z,7.88
2022-08-08T20:09:55.755Z,9.18
2022-08-08T20:12:32.389Z,8.93
2022-08-08T20:15:09.776Z,7.32
2022-08-08T20:17:46.391Z,8.77
2022-08-08T20:20:19.758Z,8.00
2022-08-08T20:22:54.100Z,12.15
2022-08-08T20:25:24.698Z,12.27
2022-08-08T20:27:54.504Z,11.65
2022-08-08T20:30:52.900Z,9.45
2022-08-08T20:33:19.684Z,11.90
2022-08-08T20:35:58.397Z,9.90
2022-08-08T20:38:33.043Z,10.32
2022-08-08T20:41:05.207Z,6.68
2022-08-08T20:43:43.803Z,8.75
2022-08-08T20:46:15.920Z,8.02
2022-08-08T20:48:44.842Z,9.82
2022-08-08T20:51:12.853Z,6.25
2022-08-08T20:54:00.076Z,5.10
2022-08-08T20:56:35.579Z,10.20
2022-08-08T20:59:09.112Z,8.15
2022-08-08T21:02:05.449Z,5.43
2022-08-08T21:04:27.559Z,7.63
2022-08-08T21:06:56.219Z,7.13
2022-08-08T21:09:31.576Z,9.75
2022-08-08T21:12:02.769Z,6.63
2022-08-08T21:14:34.665Z,7.32
2022-08-08T21:17:06.084Z,8.27
2022-08-08T21:19:45.854Z,5.65
2022-08-08T21:22:15.668Z,9.10
2022-08-08T21:24:53.665Z,12.20
2022-08-08T21:28:05.153Z,8.63
2022-08-08T21:30:18.622Z,9.43
2022-08-08T21:32:52.534Z,7.30
2022-08-08T21:36:17.841Z,12.77
2022-08-08T21:38:16.003Z,6.13
2022-08-08T21:40:56.314Z,6.47
2022-08-08T21:43:33.570Z,8.80
2022-08-08T21:48:04.939Z,6.85
2022-08-08T21:48:57.300Z,11.25
2022-08-08T21:54:18.711Z,8.57
2022-08-08T21:54:51.608Z,11.60
2022-08-08T21:57:09.388Z,7.35
2022-08-08T21:59:44.197Z,4.95
2022-08-08T22:02:24.906Z,7.30
2022-08-08T22:04:55.944Z,10.48
2022-08-08T22:07:40.372Z,9.75
2022-08-08T22:10:18.278Z,8.85
2022-08-08T22:13:18.244Z,13.48
2022-08-08T22:15:59.678Z,6.28
2022-08-08T22:18:31.655Z,7.47
2022-08-08T22:21:14.057Z,7.47
2022-08-08T22:23:51.651Z,9.82
2022-08-08T22:26:29.598Z,8.88
2022-08-08T22:29:04.770Z,8.90
2022-08-08T22:31:43.553Z,9.55
2022-08-08T22:34:27.521Z,8.55
2022-08-08T22:36:55.054Z,8.38
2022-08-08T22:39:22.657Z,12.00
2022-08-08T22:42:10.411Z,6.97
2022-08-08T22:44:37.982Z,6.72
2022-08-08T22:47:16.707Z,5.93
2022-08-08T22:49:54.150Z,10.95
2022-08-08T22:52:33.624Z,10.10
2022-08-08T22:55:05.798Z,4.43
2022-08-08T22:57:44.161Z,5.60
2022-08-08T23:00:18.429Z,8.98
2022-08-08T23:02:50.342Z,4.97
2022-08-08T23:05:21.323Z,5.07
2022-08-08T23:07:57.762Z,7.45
2022-08-08T23:10:26.996Z,8.77
2022-08-08T23:12:56.440Z,6.65
2022-08-08T23:16:40.637Z,4.88
2022-08-08T23:18:12.529Z,5.35
2022-08-08T23:20:43.985Z,7.22
2022-08-08T23:23:12.574Z,9.82
2022-08-08T23:25:47.820Z,7.40
2022-08-08T23:28:18.895Z,6.65
2022-08-08T23:30:47.567Z,10.07
2022-08-08T23:33:19.128Z,5.55
2022-08-08T23:36:06.873Z,4.57
2022-08-08T23:38:34.700Z,5.18
2022-08-08T23:41:05.187Z,8.27
2022-08-08T23:43:45.547Z,9.68
2022-08-08T23:49:05.979Z,7.40
2022-08-08T23:49:14.564Z,5.65
2022-08-08T23:52:04.382Z,6.82
2022-08-08T23:54:43.229Z,9.05
2022-08-08T23:57:27.640Z,3.90
